createdAt,value
2018-12-08T00:01:26.107Z,99497.86
2018-12-08T00:03:53.628Z,99514.23
2018-12-08T00:06:21.165Z,99505.58
2018-12-08T00:08:48.680Z,99511.72
2018-12-08T00:11:16.227Z,99515.06
2018-12-08T00:13:43.736Z,99519.96
2018-12-08T00:16:11.272Z,99527.45
2018-12-08T00:18:38.780Z,99534.16
2018-12-08T00:21:06.313Z,99540.30
2018-12-08T00:23:33.829Z,99547.61
2018-12-08T00:26:01.381Z,99558.64
2018-12-08T00:28:29.066Z,99556.15
2018-12-08T00:31:08.391Z,99560.74
2018-12-08T00:33:35.897Z,99565.13
2018-12-08T00:36:03.447Z,99555.41
2018-12-08T00:38:30.961Z,99554.05
2018-12-08T00:40:58.466Z,99558.75
2018-12-08T00:43:26.014Z,99562.41
2018-12-08T00:45:53.526Z,99565.31
2018-12-08T00:48:21.053Z,99565.42
2018-12-08T00:50:48.555Z,99573.34
2018-12-08T00:53:16.089Z,99586.28
2018-12-08T00:55:43.604Z,99592.14
2018-12-08T00:58:11.145Z,99598.28
2018-12-08T01:00:38.661Z,99602.13
2018-12-08T01:03:06.196Z,99594.52
2018-12-08T01:05:33.782Z,99600.89
2018-12-08T01:08:01.325Z,99611.63
2018-12-08T01:10:28.833Z,99612.05
2018-12-08T01:12:56.370Z,99608.20
2018-12-08T01:15:23.895Z,99601.83
2018-12-08T01:17:51.433Z,99626.34
2018-12-08T01:20:18.950Z,99630.52
2018-12-08T01:22:46.486Z,99628.09
2018-12-08T01:25:14.273Z,99624.54
2018-12-08T01:27:41.816Z,99641.55
2018-12-08T01:30:09.414Z,99639.36
2018-12-08T01:32:36.949Z,99645.41
2018-12-08T01:35:05.260Z,99636.03
2018-12-08T01:37:32.803Z,99647.59
2018-12-08T01:40:00.314Z,99654.36
2018-12-08T01:42:27.849Z,99643.34
2018-12-08T01:44:55.356Z,99661.60
2018-12-08T01:47:22.916Z,99667.09
2018-12-08T01:49:50.426Z,99665.80
2018-12-08T01:52:17.935Z,99668.30
2018-12-08T01:54:45.479Z,99667.92
2018-12-08T01:57:13.058Z,99654.31
2018-12-08T02:00:05.280Z,99672.76
2018-12-08T02:02:52.809Z,99664.29
2018-12-08T02:05:20.331Z,99658.53
2018-12-08T02:07:47.881Z,99672.13
2018-12-08T02:10:15.390Z,99665.44
2018-12-08T02:12:42.902Z,99662.52
2018-12-08T02:15:10.505Z,99677.71
2018-12-08T02:17:38.157Z,99678.53
2018-12-08T02:20:05.759Z,99680.86
2018-12-08T02:22:33.269Z,99684.22
2018-12-08T02:25:00.810Z,99685.44
2018-12-08T02:27:28.320Z,99689.19
2018-12-08T02:29:55.856Z,99682.30
2018-12-08T02:32:23.378Z,99700.94
2018-12-08T02:34:50.909Z,99698.98
2018-12-08T02:37:18.421Z,99696.00
2018-12-08T02:39:55.776Z,99690.23
2018-12-08T02:42:23.285Z,99698.92
2018-12-08T02:44:50.833Z,99691.54
2018-12-08T02:47:18.342Z,99687.22
2018-12-08T02:49:45.881Z,99692.63
2018-12-08T02:52:13.389Z,99686.08
2018-12-08T02:54:40.918Z,99680.44
2018-12-08T02:57:08.429Z,99686.81
2018-12-08T02:59:35.970Z,99690.97
2018-12-08T03:02:03.552Z,99686.20
2018-12-08T03:04:31.107Z,99681.63
2018-12-08T03:06:58.624Z,99687.51
2018-12-08T03:09:26.163Z,99682.56
2018-12-08T03:11:53.681Z,99684.47
2018-12-08T03:14:21.217Z,99687.17
2018-12-08T03:16:48.726Z,99681.45
2018-12-08T03:19:16.262Z,99687.04
2018-12-08T03:21:43.780Z,99684.93
2018-12-08T03:24:11.297Z,99684.33
2018-12-08T03:26:38.833Z,99678.69
2018-12-08T03:29:06.357Z,99682.09
2018-12-08T03:31:33.910Z,99686.20
2018-12-08T03:34:01.435Z,99684.39
2018-12-08T03:36:28.971Z,99677.23
2018-12-08T03:38:56.488Z,99687.82
2018-12-08T03:41:24.026Z,99678.84
2018-12-08T03:43:51.546Z,99691.38
2018-12-08T03:46:19.086Z,99691.11
2018-12-08T03:48:46.609Z,99696.31
2018-12-08T03:51:14.144Z,99700.81
2018-12-08T03:53:41.661Z,99696.88
2018-12-08T03:56:09.197Z,99700.12
2018-12-08T03:58:36.725Z,99698.28
2018-12-08T04:01:04.269Z,99692.96
2018-12-08T04:03:31.780Z,99696.71
2018-12-08T04:05:59.327Z,99703.80
2018-12-08T04:08:26.846Z,99698.29
2018-12-08T04:10:54.384Z,99689.98
2018-12-08T04:13:21.968Z,99697.19
2018-12-08T04:15:49.509Z,99701.34
2018-12-08T04:18:17.026Z,99693.83
2018-12-08T04:20:44.578Z,99693.16
2018-12-08T04:23:12.090Z,99699.07
2018-12-08T04:25:39.623Z,99693.16
2018-12-08T04:28:07.140Z,99695.22
2018-12-08T04:30:34.676Z,99685.31
2018-12-08T04:33:02.201Z,99685.87
2018-12-08T04:35:29.753Z,99690.02
2018-12-08T04:37:57.275Z,99681.98
2018-12-08T04:40:24.804Z,99678.94
2018-12-08T04:42:52.345Z,99682.56
2018-12-08T04:45:19.866Z,99671.38
2018-12-08T04:47:47.399Z,99678.19
2018-12-08T04:50:14.914Z,99677.97
2018-12-08T04:52:42.682Z,99678.75
2018-12-08T04:55:10.357Z,99667.05
2018-12-08T04:57:37.966Z,99666.88
2018-12-08T05:00:06.126Z,99671.81
2018-12-08T05:02:33.730Z,99662.69
2018-12-08T05:05:01.250Z,99662.12
2018-12-08T05:07:28.795Z,99657.83
2018-12-08T05:09:56.302Z,99658.27
2018-12-08T05:12:23.843Z,99656.86
2018-12-08T05:14:51.356Z,99652.80
2018-12-08T05:17:18.894Z,99650.75
2018-12-08T05:19:46.402Z,99646.91
2018-12-08T05:22:13.946Z,99652.03
2018-12-08T05:24:41.465Z,99646.23
2018-12-08T05:27:09.005Z,99644.35
2018-12-08T05:29:36.525Z,99655.44
2018-12-08T05:32:04.128Z,99643.17
2018-12-08T05:34:31.640Z,99646.88
2018-12-08T05:36:59.181Z,99649.16
2018-12-08T05:39:26.688Z,99648.23
2018-12-08T05:41:54.234Z,99650.23
2018-12-08T05:44:21.758Z,99641.59
2018-12-08T05:46:49.357Z,99650.89
2018-12-08T05:49:16.932Z,99646.52
2018-12-08T05:51:44.472Z,99642.27
2018-12-08T05:54:11.976Z,99637.69
2018-12-08T05:56:39.481Z,99641.97
2018-12-08T05:59:07.015Z,99649.78
2018-12-08T06:01:34.536Z,99641.84
2018-12-08T06:04:02.065Z,99644.46
2018-12-08T06:06:29.577Z,99638.83
2018-12-08T06:08:57.107Z,99641.27
2018-12-08T06:11:24.641Z,99646.06
2018-12-08T06:13:52.168Z,99649.39
2018-12-08T06:16:19.684Z,99647.08
2018-12-08T06:18:47.224Z,99649.53
2018-12-08T06:21:14.869Z,99642.27
2018-12-08T06:23:42.412Z,99646.86
2018-12-08T06:26:10.061Z,99642.70
2018-12-08T06:28:38.944Z,99656.50
2018-12-08T06:31:06.638Z,99641.38
2018-12-08T06:33:34.181Z,99643.57
2018-12-08T06:36:01.700Z,99643.97
2018-12-08T06:38:29.311Z,99650.69
2018-12-08T06:40:56.876Z,99637.20
2018-12-08T06:43:24.408Z,99635.02
2018-12-08T06:45:51.915Z,99633.75
2018-12-08T06:48:19.456Z,99635.53
2018-12-08T06:50:46.968Z,99648.47
2018-12-08T06:53:14.513Z,99642.55
2018-12-08T06:55:42.032Z,99640.86
2018-12-08T06:58:09.579Z,99642.44
2018-12-08T07:00:37.084Z,99636.80
2018-12-08T07:03:04.615Z,99624.61
2018-12-08T07:05:32.121Z,99604.63
2018-12-08T07:07:59.655Z,99621.80
2018-12-08T07:10:27.166Z,99609.52
2018-12-08T07:12:54.710Z,99607.14
2018-12-08T07:15:22.284Z,99610.47
2018-12-08T07:17:49.821Z,99611.94
2018-12-08T07:20:17.328Z,99606.30
2018-12-08T07:22:44.913Z,99599.97
2018-12-08T07:25:12.519Z,99601.22
2018-12-08T07:27:40.042Z,99585.98
2018-12-08T07:30:08.916Z,99596.39
2018-12-08T07:32:38.897Z,99593.78
2018-12-08T07:35:06.429Z,99587.22
2018-12-08T07:37:33.938Z,99588.03
2018-12-08T07:40:01.473Z,99579.50
2018-12-08T07:42:28.993Z,99575.34
2018-12-08T07:44:56.523Z,99577.13
2018-12-08T07:47:24.036Z,99574.73
2018-12-08T07:49:51.576Z,99576.70
2018-12-08T07:52:19.080Z,99574.11
2018-12-08T07:54:46.627Z,99567.53
2018-12-08T07:57:14.133Z,99574.13
2018-12-08T07:59:41.671Z,99569.31
2018-12-08T08:02:09.184Z,99561.42
2018-12-08T08:04:36.744Z,99550.67
2018-12-08T08:07:04.326Z,99544.06
2018-12-08T08:09:31.866Z,99541.02
2018-12-08T08:11:59.376Z,99544.78
2018-12-08T08:14:26.915Z,99550.41
2018-12-08T08:16:54.424Z,99550.82
2018-12-08T08:19:21.985Z,99540.92
2018-12-08T08:21:49.493Z,99545.51
2018-12-08T08:24:17.001Z,99546.34
2018-12-08T08:26:44.529Z,99531.20
2018-12-08T08:29:12.037Z,99529.66
2018-12-08T08:31:39.791Z,99530.70
2018-12-08T08:34:07.300Z,99517.98
2018-12-08T08:36:34.824Z,99518.58
2018-12-08T08:39:02.680Z,99530.78
2018-12-08T08:41:30.226Z,99525.39
2018-12-08T08:43:57.744Z,99501.59
2018-12-08T08:46:25.280Z,99515.27
2018-12-08T08:48:53.101Z,99507.23
2018-12-08T08:51:20.633Z,99505.27
2018-12-08T08:53:48.142Z,99514.13
2018-12-08T08:56:15.686Z,99501.18
2018-12-08T08:58:43.193Z,99493.16
2018-12-08T09:01:10.726Z,99499.83
2018-12-08T09:03:38.237Z,99492.52
2018-12-08T09:06:05.774Z,99481.66
2018-12-08T09:08:33.287Z,99494.28
2018-12-08T09:11:00.824Z,99493.11
2018-12-08T09:13:28.340Z,99463.56
2018-12-08T09:15:55.887Z,99477.12
2018-12-08T09:18:23.404Z,99476.81
2018-12-08T09:20:50.911Z,99475.64
2018-12-08T09:23:18.470Z,99472.61
2018-12-08T09:25:45.980Z,99473.55
2018-12-08T09:28:13.538Z,99479.79
2018-12-08T09:30:41.064Z,99472.86
2018-12-08T09:33:08.609Z,99464.27
2018-12-08T09:35:36.118Z,99477.00
2018-12-08T09:38:03.680Z,99475.47
2018-12-08T09:40:31.197Z,99468.52
2018-12-08T09:42:58.761Z,99471.22
2018-12-08T09:45:26.269Z,99461.63
2018-12-08T09:47:53.808Z,99465.69
2018-12-08T09:50:21.321Z,99465.46
2018-12-08T09:52:52.822Z,99461.39
2018-12-08T09:55:20.333Z,99451.70
2018-12-08T09:57:47.881Z,99452.27
2018-12-08T10:00:15.389Z,99447.12
2018-12-08T10:02:42.930Z,99437.48
2018-12-08T10:05:10.456Z,99435.94
2018-12-08T10:07:37.992Z,99430.27
2018-12-08T10:10:07.348Z,99425.38
2018-12-08T10:12:34.892Z,99413.59
2018-12-08T10:15:02.405Z,99420.59
2018-12-08T10:17:29.960Z,99415.38
2018-12-08T10:19:57.603Z,99413.72
2018-12-08T10:22:25.112Z,99412.89
2018-12-08T10:24:52.674Z,99400.14
2018-12-08T10:27:20.187Z,99403.91
2018-12-08T10:29:47.724Z,99397.83
2018-12-08T10:32:15.239Z,99395.20
2018-12-08T10:34:42.791Z,99393.63
2018-12-08T10:37:10.304Z,99385.67
2018-12-08T10:39:37.846Z,99391.16
2018-12-08T10:42:05.359Z,99378.38
2018-12-08T10:44:32.899Z,99375.33
2018-12-08T10:47:00.479Z,99380.25
2018-12-08T10:49:28.011Z,99363.77
2018-12-08T10:51:55.530Z,99363.03
2018-12-08T10:54:24.901Z,99362.94
2018-12-08T10:56:52.605Z,99346.11
2018-12-08T10:59:20.139Z,99351.77
2018-12-08T11:01:53.341Z,99355.61
2018-12-08T11:04:20.876Z,99349.59
2018-12-08T11:06:48.386Z,99343.00
2018-12-08T11:09:15.908Z,99356.81
2018-12-08T11:11:43.542Z,99340.95
2018-12-08T11:14:11.081Z,99341.33
2018-12-08T11:16:38.595Z,99344.16
2018-12-08T11:19:06.132Z,99341.14
2018-12-08T11:21:33.643Z,99342.11
2018-12-08T11:24:01.181Z,99338.86
2018-12-08T11:26:28.832Z,99335.71
2018-12-08T11:28:56.349Z,99327.86
2018-12-08T11:31:23.890Z,99331.63
2018-12-08T11:33:51.403Z,99337.20
2018-12-08T11:36:18.957Z,99318.77
2018-12-08T11:38:46.477Z,99325.27
2018-12-08T11:41:14.020Z,99331.72
2018-12-08T11:43:41.558Z,99327.08
2018-12-08T11:46:09.133Z,99321.39
2018-12-08T11:48:36.651Z,99321.84
2018-12-08T11:51:04.198Z,99318.88
2018-12-08T11:53:31.705Z,99316.93
2018-12-08T11:55:59.241Z,99310.67
2018-12-08T11:58:26.754Z,99315.28
2018-12-08T12:00:54.287Z,99304.36
2018-12-08T12:03:21.799Z,99294.37
2018-12-08T12:05:49.362Z,99310.94
2018-12-08T12:08:16.872Z,99305.89
2018-12-08T12:10:44.413Z,99300.36
2018-12-08T12:13:11.926Z,99293.72
2018-12-08T12:15:39.462Z,99301.63
2018-12-08T12:18:07.604Z,99298.39
2018-12-08T12:20:35.302Z,99301.55
2018-12-08T12:23:02.816Z,99297.44
2018-12-08T12:25:30.541Z,99289.82
2018-12-08T12:27:58.260Z,99295.20
2018-12-08T12:30:26.152Z,99288.70
2018-12-08T12:32:53.685Z,99293.75
2018-12-08T12:35:21.195Z,99294.58
2018-12-08T12:37:48.732Z,99296.08
2018-12-08T12:40:16.241Z,99297.73
2018-12-08T12:48:35.797Z,99286.34
2018-12-08T12:51:03.317Z,99286.05
2018-12-08T12:53:30.854Z,99288.02
2018-12-08T12:55:58.366Z,99289.00
2018-12-08T12:58:25.900Z,99285.06
2018-12-08T13:00:53.417Z,99271.16
2018-12-08T13:03:20.950Z,99270.72
2018-12-08T13:05:48.456Z,99269.55
2018-12-08T13:08:16.006Z,99274.12
2018-12-08T13:10:43.512Z,99274.36
2018-12-08T13:13:11.045Z,99278.81
2018-12-08T13:15:38.561Z,99274.89
2018-12-08T13:18:06.098Z,99270.62
2018-12-08T13:20:33.613Z,99280.56
2018-12-08T13:23:01.152Z,99280.91
2018-12-08T13:25:28.652Z,99268.30
2018-12-08T13:27:56.189Z,99273.53
2018-12-08T13:30:23.701Z,99274.59
2018-12-08T13:32:51.238Z,99271.09
2018-12-08T13:38:25.717Z,99278.76
2018-12-08T13:40:53.233Z,99283.66
2018-12-08T13:43:20.922Z,99267.27
2018-12-08T13:45:48.465Z,99260.48
2018-12-08T13:48:16.477Z,99259.06
2018-12-08T13:50:44.274Z,99254.08
2018-12-08T13:53:11.809Z,99248.78
2018-12-08T13:55:39.326Z,99250.53
2018-12-08T13:58:06.863Z,99255.14
2018-12-08T14:00:34.534Z,99256.16
2018-12-08T14:03:02.064Z,99259.55
2018-12-08T14:05:29.644Z,99251.02
2018-12-08T14:07:57.182Z,99251.45
2018-12-08T14:10:24.692Z,99247.52
2018-12-08T14:12:52.231Z,99247.95
2018-12-08T14:15:19.821Z,99238.89
2018-12-08T14:17:47.365Z,99243.72
2018-12-08T14:20:23.032Z,99240.91
2018-12-08T14:22:50.562Z,99247.40
2018-12-08T14:25:18.077Z,99239.78
2018-12-08T14:27:45.593Z,99238.63
2018-12-08T14:30:13.129Z,99236.16
2018-12-08T14:32:40.644Z,99235.19
2018-12-08T14:35:08.249Z,99235.58
2018-12-08T14:37:35.766Z,99235.34
2018-12-08T14:40:04.568Z,99229.39
2018-12-08T14:42:32.076Z,99236.70
2018-12-08T14:44:59.617Z,99227.20
2018-12-08T14:47:27.125Z,99219.69
2018-12-08T14:49:54.662Z,99221.34
2018-12-08T14:52:22.169Z,99222.95
2018-12-08T14:54:49.702Z,99222.38
2018-12-08T14:57:17.214Z,99219.45
2018-12-08T14:59:44.757Z,99221.11
2018-12-08T15:02:12.401Z,99225.27
2018-12-08T15:04:39.940Z,99231.09
2018-12-08T15:07:07.516Z,99227.80
2018-12-08T15:09:35.054Z,99226.20
2018-12-08T15:14:44.605Z,99224.11
2018-12-08T15:17:17.901Z,99225.97
2018-12-08T15:19:45.440Z,99237.45
2018-12-08T15:22:12.955Z,99233.14
2018-12-08T15:24:40.490Z,99227.18
2018-12-08T15:27:07.998Z,99227.18
2018-12-08T15:29:35.642Z,99215.64
2018-12-08T15:32:03.155Z,99218.88
2018-12-08T15:34:30.693Z,99222.80
2018-12-08T15:36:58.201Z,99217.05
2018-12-08T15:39:25.753Z,99228.00
2018-12-08T15:41:53.258Z,99225.08
2018-12-08T15:44:20.786Z,99231.25
2018-12-08T15:46:48.301Z,99221.98
2018-12-08T15:49:15.835Z,99224.90
2018-12-08T15:51:43.343Z,99222.18
2018-12-08T15:54:10.951Z,99215.84
2018-12-08T15:56:38.462Z,99223.30
2018-12-08T15:59:05.993Z,99221.55
2018-12-08T16:01:33.497Z,99226.38
2018-12-08T16:04:01.008Z,99225.09
2018-12-08T16:06:28.547Z,99227.66
2018-12-08T16:08:56.064Z,99231.92
2018-12-08T16:11:23.608Z,99233.52
2018-12-08T16:13:51.127Z,99230.95
2018-12-08T16:16:18.681Z,99224.70
2018-12-08T16:18:46.212Z,99226.36
2018-12-08T16:21:13.756Z,99214.52
2018-12-08T16:23:41.269Z,99217.67
2018-12-08T16:26:08.821Z,99230.28
2018-12-08T16:28:36.344Z,99233.52
2018-12-08T16:31:03.890Z,99224.75
2018-12-08T16:33:31.403Z,99226.34
2018-12-08T16:35:58.937Z,99224.22
2018-12-08T16:38:26.461Z,99242.20
2018-12-08T16:40:53.995Z,99219.71
2018-12-08T16:43:21.507Z,99220.53
2018-12-08T16:45:49.113Z,99212.23
2018-12-08T16:48:16.625Z,99218.88
2018-12-08T16:50:44.168Z,99214.92
2018-12-08T16:53:11.676Z,99213.88
2018-12-08T16:55:39.188Z,99204.14
2018-12-08T16:58:06.802Z,99216.12
2018-12-08T17:00:34.312Z,99209.23
2018-12-08T17:03:01.848Z,99205.02
2018-12-08T17:05:29.364Z,99200.12
2018-12-08T17:07:56.902Z,99201.17
2018-12-08T17:10:24.412Z,99195.28
2018-12-08T17:12:51.946Z,99213.78
2018-12-08T17:15:19.462Z,99215.06
2018-12-08T17:17:46.996Z,99215.38
2018-12-08T17:20:14.589Z,99218.01
2018-12-08T17:22:42.129Z,99211.75
2018-12-08T17:25:09.639Z,99214.38
2018-12-08T17:27:37.168Z,99209.18
2018-12-08T17:30:05.118Z,99209.77
2018-12-08T17:32:32.652Z,99200.51
2018-12-08T17:35:00.164Z,99198.71
2018-12-08T17:37:27.695Z,99198.13
2018-12-08T17:39:55.211Z,99200.76
2018-12-08T17:42:22.746Z,99207.11
2018-12-08T17:44:50.256Z,99204.19
2018-12-08T17:47:17.829Z,99195.33
2018-12-08T17:49:45.337Z,99203.80
2018-12-08T17:52:12.923Z,99210.35
2018-12-08T17:54:40.463Z,99202.44
2018-12-08T17:57:07.977Z,99197.61
2018-12-08T17:59:35.511Z,99203.86
2018-12-08T18:02:03.025Z,99199.49
2018-12-08T18:04:30.555Z,99200.26
2018-12-08T18:06:58.063Z,99201.67
2018-12-08T18:09:25.613Z,99189.16
2018-12-08T18:11:53.129Z,99188.10
2018-12-08T18:14:20.663Z,99190.28
2018-12-08T18:16:48.193Z,99186.30
2018-12-08T18:19:15.725Z,99181.79
2018-12-08T18:21:43.324Z,99183.23
2018-12-08T18:24:10.903Z,99187.98
2018-12-08T18:26:38.408Z,99182.94
2018-12-08T18:29:06.054Z,99179.69
2018-12-08T18:31:33.658Z,99185.42
2018-12-08T18:34:01.209Z,99179.45
2018-12-08T18:36:28.753Z,99175.47
2018-12-08T18:38:56.256Z,99169.95
2018-12-08T18:41:23.787Z,99168.38
2018-12-08T18:43:51.294Z,99167.23
2018-12-08T18:46:18.833Z,99166.11
2018-12-08T18:48:46.348Z,99162.33
2018-12-08T18:51:13.882Z,99159.85
2018-12-08T18:53:41.393Z,99149.59
2018-12-08T18:56:08.927Z,99146.78
2018-12-08T18:58:36.425Z,99147.70
2018-12-08T19:01:03.955Z,99145.81
2018-12-08T19:03:31.464Z,99149.67
2018-12-08T19:05:58.994Z,99143.86
2018-12-08T19:08:26.948Z,99146.78
2018-12-08T19:10:54.490Z,99149.80
2018-12-08T19:13:22.043Z,99148.91
2018-12-08T19:15:49.588Z,99145.37
2018-12-08T19:18:18.592Z,99150.27
2018-12-08T19:20:47.163Z,99152.60
2018-12-08T19:23:16.026Z,99146.46
2018-12-08T19:25:46.488Z,99141.50
2018-12-08T19:28:15.320Z,99141.27
2018-12-08T19:30:47.176Z,99142.19
2018-12-08T19:33:15.206Z,99139.67
2018-12-08T19:35:46.608Z,99133.13
2018-12-08T19:38:14.153Z,99127.41
2018-12-08T19:40:42.654Z,99115.39
2018-12-08T19:43:16.912Z,99117.05
2018-12-08T19:45:45.863Z,99115.16
2018-12-08T19:48:14.321Z,99111.73
2018-12-08T19:50:43.893Z,99108.87
2018-12-08T19:53:12.981Z,99109.02
2018-12-08T19:55:41.212Z,99099.14
2018-12-08T19:58:14.387Z,99106.06
2018-12-08T20:00:42.665Z,99108.72
2018-12-08T20:03:11.922Z,99105.67
2018-12-08T20:05:43.492Z,99096.71
2018-12-08T20:08:13.272Z,99093.37
2018-12-08T20:10:41.134Z,99088.53
2018-12-08T20:13:09.623Z,99094.01
2018-12-08T20:15:39.850Z,99093.90
2018-12-08T20:18:07.654Z,99090.37
2018-12-08T20:20:37.070Z,99079.61
2018-12-08T20:23:07.297Z,99086.19
2018-12-08T20:25:36.449Z,99084.36
2018-12-08T20:28:04.345Z,99080.23
2018-12-08T20:30:32.900Z,99068.94
2018-12-08T20:33:01.600Z,99067.22
2018-12-08T20:35:32.039Z,99058.40
2018-12-08T20:38:00.314Z,99058.01
2018-12-08T20:40:28.338Z,99045.80
2018-12-08T20:42:56.498Z,99039.98
2018-12-08T20:45:24.775Z,99037.97
2018-12-08T20:47:53.129Z,99031.48
2018-12-08T20:50:22.398Z,99027.70
2018-12-08T20:52:53.194Z,99013.83
2018-12-08T20:55:23.719Z,99016.76
2018-12-08T20:57:51.313Z,99007.05
2018-12-08T21:00:21.088Z,99012.19
2018-12-08T21:02:52.639Z,99004.71
2018-12-08T21:05:20.605Z,98992.25
2018-12-08T21:07:48.711Z,98993.31
2018-12-08T21:10:21.744Z,98986.98
2018-12-08T21:12:50.030Z,98975.98
2018-12-08T21:15:18.403Z,98964.76
2018-12-08T21:17:48.415Z,98961.43
2018-12-08T21:20:21.632Z,98956.09
2018-12-08T21:22:50.157Z,98946.21
2018-12-08T21:25:18.025Z,98933.70
2018-12-08T21:27:47.909Z,98930.91
2018-12-08T21:30:15.513Z,98919.06
2018-12-08T21:32:44.520Z,98914.04
2018-12-08T21:35:14.873Z,98907.34
2018-12-08T21:37:43.441Z,98904.03
2018-12-08T21:40:18.849Z,98897.70
2018-12-08T21:42:46.422Z,98894.99
2018-12-08T21:45:17.785Z,98888.87
2018-12-08T21:47:50.894Z,98880.89
2018-12-08T21:50:20.262Z,98877.64
2018-12-08T21:52:51.170Z,98864.70
2018-12-08T21:55:20.365Z,98859.41
2018-12-08T21:57:48.816Z,98845.47
2018-12-08T22:00:21.253Z,98844.56
2018-12-08T22:02:49.348Z,98840.70
2018-12-08T22:05:17.269Z,98839.55
2018-12-08T22:07:47.775Z,98826.46
2018-12-08T22:10:16.779Z,98816.21
2018-12-08T22:12:45.057Z,98819.75
2018-12-08T22:15:16.039Z,98811.15
2018-12-08T22:17:44.682Z,98811.69
2018-12-08T22:20:12.601Z,98801.58
2018-12-08T22:22:41.612Z,98800.60
2018-12-08T22:25:14.928Z,98778.33
2018-12-08T22:27:44.852Z,98783.25
2018-12-08T22:30:13.717Z,98762.17
2018-12-08T22:32:41.601Z,98761.45
2018-12-08T22:35:09.555Z,98751.50
2018-12-08T22:37:38.236Z,98747.81
2018-12-08T22:40:07.568Z,98728.95
2018-12-08T22:42:35.277Z,98719.63
2018-12-08T22:45:04.735Z,98720.62
2018-12-08T22:47:33.171Z,98705.09
2018-12-08T22:50:02.413Z,98698.56
2018-12-08T22:52:30.726Z,98688.45
2018-12-08T22:54:59.550Z,98688.70
2018-12-08T22:57:27.379Z,98671.00
2018-12-08T22:59:55.374Z,98664.67
2018-12-08T23:02:25.619Z,98664.92
2018-12-08T23:04:53.635Z,98652.94
2018-12-08T23:07:23.776Z,98648.30
2018-12-08T23:09:52.754Z,98630.16
2018-12-08T23:12:20.332Z,98633.59
2018-12-08T23:14:51.957Z,98620.28
2018-12-08T23:17:22.958Z,98614.04
2018-12-08T23:19:50.894Z,98604.23
2018-12-08T23:22:18.492Z,98597.45
2018-12-08T23:24:48.581Z,98587.75
2018-12-08T23:27:19.522Z,98569.60
2018-12-08T23:29:47.820Z,98555.76
2018-12-08T23:32:17.062Z,98544.91
2018-12-08T23:34:46.448Z,98533.00
2018-12-08T23:37:14.980Z,98524.94
2018-12-08T23:39:42.498Z,98518.16
2018-12-08T23:42:11.950Z,98510.03
2018-12-08T23:44:41.788Z,98508.43
2018-12-08T23:47:11.774Z,98492.87
2018-12-08T23:49:40.362Z,98497.66
2018-12-08T23:52:11.143Z,98487.70
2018-12-08T23:54:38.735Z,98487.20
2018-12-08T23:57:09.885Z,98482.38
2018-12-08T23:59:38.177Z,98471.07
